createdAt,value
2023-05-06T00:00:41.017Z,20.23
2023-05-06T00:03:44.287Z,13.93
2023-05-06T00:06:48.843Z,16.60
2023-05-06T00:09:51.907Z,14.40
2023-05-06T00:12:54.916Z,12.07
2023-05-06T00:15:57.959Z,13.63
2023-05-06T00:19:01.006Z,13.30
2023-05-06T00:22:04.005Z,17.30
2023-05-06T00:25:07.504Z,13.60
2023-05-06T00:28:10.749Z,13.23
2023-05-06T00:31:13.708Z,13.35
2023-05-06T00:34:16.748Z,17.00
2023-05-06T00:37:19.717Z,12.63
2023-05-06T00:40:22.754Z,14.00
2023-05-06T00:43:25.729Z,16.40
2023-05-06T00:46:28.673Z,13.35
2023-05-06T00:49:31.781Z,14.33
2023-05-06T00:52:34.747Z,13.17
2023-05-06T00:55:38.871Z,15.52
2023-05-06T00:58:42.368Z,15.05
2023-05-06T01:01:45.720Z,13.75
2023-05-06T01:04:48.673Z,12.77
2023-05-06T01:07:58.854Z,13.03
2023-05-06T01:11:24.392Z,14.50
2023-05-06T01:14:33.596Z,12.85
2023-05-06T01:17:39.394Z,13.80
2023-05-06T01:20:43.552Z,13.43
2023-05-06T01:23:57.932Z,15.20
2023-05-06T01:27:01.564Z,13.15
2023-05-06T01:30:04.880Z,15.50
2023-05-06T01:33:29.660Z,15.13
2023-05-06T01:37:05.135Z,15.07
2023-05-06T01:40:08.522Z,14.70
2023-05-06T01:43:11.450Z,13.40
2023-05-06T01:46:21.914Z,15.98
2023-05-06T01:49:25.046Z,12.68
2023-05-06T01:52:28.023Z,13.97
2023-05-06T01:55:32.247Z,14.33
2023-05-06T01:58:36.082Z,14.38
2023-05-06T02:01:39.155Z,14.48
2023-05-06T02:04:43.566Z,12.48
2023-05-06T02:07:46.610Z,13.60
2023-05-06T02:10:50.253Z,13.80
2023-05-06T02:13:55.280Z,13.10
2023-05-06T02:16:58.296Z,12.75
2023-05-06T02:20:01.333Z,12.70
2023-05-06T02:23:04.319Z,11.17
2023-05-06T02:26:07.286Z,13.30
2023-05-06T02:29:10.242Z,13.32
2023-05-06T02:32:13.264Z,13.10
2023-05-06T02:35:16.221Z,14.10
2023-05-06T02:38:20.966Z,13.40
2023-05-06T02:41:23.880Z,14.77
2023-05-06T02:44:28.387Z,15.65
2023-05-06T02:47:31.404Z,16.15
2023-05-06T02:50:35.647Z,16.92
2023-05-06T02:53:38.666Z,17.07
2023-05-06T02:56:43.349Z,13.93
2023-05-06T02:59:46.320Z,14.38
2023-05-06T03:02:49.337Z,14.13
2023-05-06T03:05:52.364Z,16.95
2023-05-06T03:08:55.309Z,13.43
2023-05-06T03:11:58.310Z,14.50
2023-05-06T03:15:01.967Z,13.65
2023-05-06T03:18:05.133Z,13.88
2023-05-06T03:21:08.645Z,16.92
2023-05-06T03:24:13.910Z,14.10
2023-05-06T03:27:16.969Z,16.07
2023-05-06T03:30:23.163Z,13.90
2023-05-06T03:33:29.598Z,15.23
2023-05-06T03:36:33.132Z,17.52
2023-05-06T03:39:36.411Z,13.30
2023-05-06T03:42:39.911Z,15.20
2023-05-06T03:45:43.378Z,13.98
2023-05-06T03:48:46.889Z,14.00
2023-05-06T03:51:53.549Z,13.75
2023-05-06T03:54:58.779Z,15.17
2023-05-06T03:58:02.649Z,13.27
2023-05-06T04:01:05.919Z,16.30
2023-05-06T04:04:09.593Z,15.77
2023-05-06T04:07:12.846Z,16.52
2023-05-06T04:10:15.887Z,17.27
2023-05-06T04:13:23.007Z,13.77
2023-05-06T04:16:26.692Z,14.50
2023-05-06T04:19:29.725Z,15.32
2023-05-06T04:22:33.009Z,13.40
2023-05-06T04:25:37.886Z,14.13
2023-05-06T04:28:41.710Z,15.20
2023-05-06T04:31:46.439Z,13.75
2023-05-06T04:34:53.592Z,12.48
2023-05-06T04:37:56.798Z,13.52
2023-05-06T04:41:05.431Z,13.40
2023-05-06T04:44:09.090Z,12.70
2023-05-06T04:47:13.079Z,13.80
2023-05-06T04:50:19.473Z,13.50
2023-05-06T04:53:22.941Z,13.93
2023-05-06T04:56:26.313Z,13.50
2023-05-06T04:59:30.144Z,11.73
2023-05-06T05:02:33.316Z,14.05
2023-05-06T05:05:36.410Z,13.63
2023-05-06T05:08:41.904Z,13.85
2023-05-06T05:11:45.601Z,16.33
2023-05-06T05:14:49.358Z,14.43
2023-05-06T05:17:52.464Z,13.27
2023-05-06T05:20:58.608Z,13.13
2023-05-06T05:24:01.850Z,14.75
2023-05-06T05:27:05.865Z,13.80
2023-05-06T05:30:09.430Z,13.70
2023-05-06T05:33:14.866Z,18.05
2023-05-06T05:36:18.888Z,17.45
2023-05-06T05:39:24.098Z,14.52
2023-05-06T05:42:27.903Z,16.23
2023-05-06T05:45:31.452Z,14.13
2023-05-06T05:48:35.196Z,15.43
2023-05-06T05:51:39.883Z,14.82
2023-05-06T05:54:44.226Z,13.65
2023-05-06T05:57:47.753Z,15.27
2023-05-06T06:00:52.265Z,15.37
2023-05-06T06:03:56.637Z,15.63
2023-05-06T06:07:01.847Z,15.48
2023-05-06T06:10:07.707Z,12.45
2023-05-06T06:13:10.988Z,15.40
2023-05-06T06:16:13.983Z,12.90
2023-05-06T06:19:17.040Z,16.15
2023-05-06T06:22:20.503Z,14.90
2023-05-06T06:25:23.575Z,11.85
2023-05-06T06:28:26.820Z,11.63
2023-05-06T06:31:30.200Z,12.00
2023-05-06T06:34:33.152Z,11.15
2023-05-06T06:37:36.122Z,10.43
2023-05-06T06:40:39.078Z,12.52
2023-05-06T06:43:42.018Z,11.53
2023-05-06T06:46:55.251Z,11.90
2023-05-06T06:49:58.237Z,12.40
2023-05-06T06:53:02.030Z,12.35
2023-05-06T06:56:08.652Z,11.32
2023-05-06T06:59:11.634Z,10.83
2023-05-06T07:02:14.583Z,13.17
2023-05-06T07:05:18.203Z,12.95
2023-05-06T07:08:22.353Z,13.38
2023-05-06T07:11:25.340Z,11.63
2023-05-06T07:14:28.291Z,11.43
2023-05-06T07:17:31.254Z,13.20
2023-05-06T07:20:34.187Z,12.48
2023-05-06T07:23:37.152Z,11.23
2023-05-06T07:26:40.663Z,11.98
2023-05-06T07:29:43.622Z,12.03
2023-05-06T07:32:46.876Z,13.23
2023-05-06T07:35:49.805Z,13.10
2023-05-06T07:38:53.102Z,13.73
2023-05-06T07:41:56.266Z,11.50
2023-05-06T07:44:59.287Z,12.80
2023-05-06T07:48:02.332Z,12.63
2023-05-06T07:51:05.514Z,11.02
2023-05-06T07:54:08.518Z,11.65
2023-05-06T07:57:11.479Z,13.45
2023-05-06T08:00:14.745Z,12.70
2023-05-06T08:03:19.861Z,12.13
2023-05-06T08:06:22.861Z,10.73
2023-05-06T08:09:25.905Z,13.77
2023-05-06T08:12:28.871Z,12.95
2023-05-06T08:15:31.811Z,13.03
2023-05-06T08:18:34.787Z,13.47
2023-05-06T08:21:37.704Z,14.00
2023-05-06T08:24:40.701Z,12.30
2023-05-06T08:27:43.644Z,11.43
2023-05-06T08:30:48.440Z,12.73
2023-05-06T08:33:54.356Z,11.87
2023-05-06T08:36:57.877Z,10.80
2023-05-06T08:40:00.948Z,11.13
2023-05-06T08:43:04.165Z,12.02
2023-05-06T08:46:07.154Z,9.80
2023-05-06T08:49:10.138Z,13.63
2023-05-06T08:52:13.243Z,11.77
2023-05-06T08:55:16.194Z,10.60
2023-05-06T08:58:19.151Z,11.27
2023-05-06T09:01:22.261Z,10.30
2023-05-06T09:04:25.340Z,10.57
2023-05-06T09:07:28.319Z,12.18
2023-05-06T09:10:45.041Z,11.57
2023-05-06T09:13:48.162Z,8.88
2023-05-06T09:16:52.662Z,13.50
2023-05-06T09:20:00.015Z,10.70
2023-05-06T09:23:03.395Z,11.27
2023-05-06T09:26:06.371Z,10.98
2023-05-06T09:29:09.664Z,11.07
2023-05-06T09:32:14.376Z,9.60
2023-05-06T09:35:17.551Z,14.50
2023-05-06T09:38:21.769Z,9.80
2023-05-06T09:41:28.126Z,12.25
2023-05-06T09:44:31.127Z,10.73
2023-05-06T09:47:35.277Z,11.57
2023-05-06T09:50:38.559Z,11.33
2023-05-06T09:53:41.665Z,12.40
2023-05-06T09:56:45.711Z,10.63
2023-05-06T09:59:49.069Z,12.35
2023-05-06T10:02:52.086Z,8.93
2023-05-06T10:05:57.306Z,12.70
2023-05-06T10:09:00.954Z,8.38
2023-05-06T10:12:04.017Z,9.38
2023-05-06T10:15:08.225Z,10.82
2023-05-06T10:18:11.286Z,10.43
2023-05-06T10:21:17.337Z,10.47
2023-05-06T10:24:32.307Z,11.10
2023-05-06T10:27:36.485Z,10.48
2023-05-06T10:30:40.210Z,11.02
2023-05-06T10:33:50.999Z,8.80
2023-05-06T10:36:57.640Z,9.33
2023-05-06T10:40:00.844Z,10.40
2023-05-06T10:43:29.692Z,9.23
2023-05-06T10:46:32.951Z,10.20
2023-05-06T10:49:36.135Z,10.60
2023-05-06T10:52:45.829Z,14.93
2023-05-06T10:55:48.806Z,9.27
2023-05-06T10:58:51.850Z,10.50
2023-05-06T11:02:07.844Z,10.05
2023-05-06T11:05:11.129Z,11.10
2023-05-06T11:08:14.328Z,7.67
2023-05-06T11:11:51.996Z,8.35
2023-05-06T11:14:54.972Z,8.75
2023-05-06T11:17:57.980Z,12.82
2023-05-06T11:21:01.075Z,8.50
2023-05-06T11:24:04.070Z,10.30
2023-05-06T11:27:07.273Z,9.85
2023-05-06T11:30:14.852Z,9.00
2023-05-06T11:33:21.042Z,10.55
2023-05-06T11:36:24.016Z,9.57
2023-05-06T11:39:30.903Z,7.77
2023-05-06T11:42:34.016Z,10.02
2023-05-06T11:45:50.778Z,9.65
2023-05-06T11:48:53.743Z,9.20
2023-05-06T11:51:59.803Z,10.03
2023-05-06T11:55:02.768Z,10.07
2023-05-06T11:58:05.809Z,8.95
2023-05-06T12:01:08.777Z,7.93
2023-05-06T12:04:12.182Z,10.65
2023-05-06T12:07:16.341Z,8.97
2023-05-06T12:10:20.338Z,9.13
2023-05-06T12:13:23.444Z,7.40
2023-05-06T12:16:27.049Z,8.50
2023-05-06T12:19:30.776Z,7.88
2023-05-06T12:22:33.841Z,9.40
2023-05-06T12:25:36.996Z,9.90
2023-05-06T12:28:42.634Z,7.72
2023-05-06T12:31:47.379Z,11.27
2023-05-06T12:34:50.534Z,8.43
2023-05-06T12:37:53.482Z,9.87
2023-05-06T12:40:56.672Z,8.83
2023-05-06T12:43:59.629Z,10.00
2023-05-06T12:47:22.526Z,8.93
2023-05-06T12:50:44.280Z,9.13
2023-05-06T12:53:47.298Z,8.07
2023-05-06T12:56:50.274Z,8.43
2023-05-06T12:59:53.837Z,10.48
2023-05-06T13:02:56.865Z,8.55
2023-05-06T13:05:59.853Z,7.85
2023-05-06T13:09:02.863Z,7.80
2023-05-06T13:12:06.341Z,8.50
2023-05-06T13:15:10.022Z,8.40
2023-05-06T13:18:12.979Z,7.57
2023-05-06T13:21:15.911Z,10.77
2023-05-06T13:24:18.889Z,8.10
2023-05-06T13:27:21.923Z,11.53
2023-05-06T13:30:25.007Z,10.88
2023-05-06T13:33:27.976Z,8.25
2023-05-06T13:36:31.256Z,9.05
2023-05-06T13:39:34.268Z,8.63
2023-05-06T13:42:37.375Z,8.50
2023-05-06T13:45:40.361Z,9.27
2023-05-06T13:48:43.347Z,11.55
2023-05-06T13:51:46.332Z,9.98
2023-05-06T13:54:49.646Z,10.23
2023-05-06T13:57:52.598Z,13.60
2023-05-06T14:00:55.557Z,9.50
2023-05-06T14:03:58.478Z,9.02
2023-05-06T14:07:01.642Z,9.77
2023-05-06T14:10:04.996Z,9.13
2023-05-06T14:13:07.981Z,11.43
2023-05-06T14:16:11.108Z,9.68
2023-05-06T14:19:14.137Z,11.88
2023-05-06T14:22:17.096Z,10.32
2023-05-06T14:25:26.621Z,10.70
2023-05-06T14:28:29.614Z,10.33
2023-05-06T14:31:34.210Z,10.93
2023-05-06T14:34:37.246Z,11.75
2023-05-06T14:37:40.167Z,11.27
2023-05-06T14:40:43.106Z,11.53
2023-05-06T14:43:46.549Z,12.10
2023-05-06T14:46:50.109Z,11.68
2023-05-06T14:49:53.044Z,11.50
2023-05-06T14:52:56.036Z,10.23
2023-05-06T14:55:59.022Z,10.97
2023-05-06T14:59:03.726Z,11.70
2023-05-06T15:02:10.277Z,11.98
2023-05-06T15:05:13.810Z,10.43
2023-05-06T15:08:16.981Z,13.02
2023-05-06T15:11:19.958Z,12.10
2023-05-06T15:14:22.884Z,11.23
2023-05-06T15:17:26.019Z,11.32
2023-05-06T15:20:28.983Z,10.65
2023-05-06T15:23:31.985Z,10.13
2023-05-06T15:26:34.947Z,10.97
2023-05-06T15:29:39.251Z,12.73
2023-05-06T15:32:42.223Z,10.80
2023-05-06T15:35:45.220Z,9.82
2023-05-06T15:39:00.209Z,9.98
2023-05-06T15:42:03.960Z,9.73
2023-05-06T15:45:07.558Z,8.23
2023-05-06T15:48:10.834Z,8.90
2023-05-06T15:51:13.840Z,8.98
2023-05-06T15:54:18.461Z,7.95
2023-05-06T15:57:21.429Z,8.67
2023-05-06T16:00:24.431Z,7.63
2023-05-06T16:03:27.473Z,7.60
2023-05-06T16:06:31.051Z,8.30
2023-05-06T16:09:33.976Z,8.85
2023-05-06T16:12:36.924Z,8.77
2023-05-06T16:15:39.953Z,7.60
2023-05-06T16:18:42.880Z,10.23
2023-05-06T16:21:45.817Z,8.32
2023-05-06T16:24:48.763Z,8.15
2023-05-06T16:27:51.709Z,7.40
2023-05-06T16:30:55.875Z,8.67
2023-05-06T16:33:58.851Z,10.43
2023-05-06T16:37:01.916Z,10.27
2023-05-06T16:40:05.315Z,10.23
2023-05-06T16:43:08.706Z,10.33
2023-05-06T16:46:11.622Z,10.43
2023-05-06T16:49:15.131Z,10.07
2023-05-06T16:52:18.437Z,12.05
2023-05-06T16:55:21.959Z,13.77
2023-05-06T16:58:24.971Z,11.50
2023-05-06T17:01:28.091Z,14.27
2023-05-06T17:04:31.070Z,21.33
2023-05-06T17:07:34.572Z,11.52
2023-05-06T17:10:37.483Z,12.35
2023-05-06T17:13:40.493Z,11.60
2023-05-06T17:16:43.508Z,12.23
2023-05-06T17:19:46.471Z,15.45
2023-05-06T17:22:49.933Z,13.90
2023-05-06T17:25:52.953Z,16.20
2023-05-06T17:28:55.905Z,16.10
2023-05-06T17:31:59.602Z,17.63
2023-05-06T17:35:02.651Z,17.60
2023-05-06T17:38:05.613Z,14.25
2023-05-06T17:41:08.642Z,21.80
2023-05-06T17:44:12.056Z,24.90
2023-05-06T17:47:15.580Z,23.37
2023-05-06T17:50:18.588Z,28.20
2023-05-06T17:53:21.604Z,25.85
2023-05-06T17:56:24.669Z,22.88
2023-05-06T17:59:28.225Z,30.00
2023-05-06T18:02:31.498Z,26.80
2023-05-06T18:05:34.539Z,21.00
2023-05-06T18:08:37.504Z,20.15
2023-05-06T18:11:40.529Z,15.75
2023-05-06T18:14:43.460Z,15.03
2023-05-06T18:17:46.528Z,20.83
2023-05-06T18:20:49.498Z,17.17
2023-05-06T18:23:56.073Z,16.67
2023-05-06T18:27:05.196Z,15.70
2023-05-06T18:30:08.951Z,16.07
2023-05-06T18:33:11.985Z,15.73
2023-05-06T18:36:14.944Z,14.45
2023-05-06T18:39:17.924Z,13.75
2023-05-06T18:42:22.373Z,17.02
2023-05-06T18:45:25.334Z,21.30
2023-05-06T18:48:30.971Z,17.67
2023-05-06T18:51:34.085Z,17.67
2023-05-06T18:54:37.061Z,14.20
2023-05-06T18:57:40.038Z,16.80
2023-05-06T19:00:43.232Z,16.63
2023-05-06T19:03:46.886Z,15.73
2023-05-06T19:06:51.602Z,16.45
2023-05-06T19:09:55.067Z,15.27
2023-05-06T19:12:58.001Z,14.57
2023-05-06T19:16:01.049Z,12.70
2023-05-06T19:19:07.116Z,15.60
2023-05-06T19:22:10.070Z,13.57
2023-05-06T19:25:13.121Z,16.00
2023-05-06T19:28:16.094Z,13.38
2023-05-06T19:31:19.067Z,14.20
2023-05-06T19:34:22.074Z,12.47
2023-05-06T19:37:25.121Z,18.67
2023-05-06T19:40:28.994Z,17.65
2023-05-06T19:43:31.934Z,18.70
2023-05-06T19:46:34.929Z,17.00
2023-05-06T19:49:37.924Z,21.33
2023-05-06T19:52:41.074Z,17.23
2023-05-06T19:55:44.070Z,18.52
2023-05-06T19:58:47.093Z,18.48
2023-05-06T20:01:50.179Z,16.53
2023-05-06T20:04:53.120Z,22.70
2023-05-06T20:07:56.057Z,21.35
2023-05-06T20:10:59.096Z,23.25
2023-05-06T20:14:02.144Z,19.48
2023-05-06T20:17:05.141Z,20.57
2023-05-06T20:20:11.500Z,25.93
2023-05-06T20:23:14.480Z,26.10
2023-05-06T20:26:17.421Z,26.55
2023-05-06T20:29:20.365Z,28.50
2023-05-06T20:32:23.371Z,24.13
2023-05-06T20:35:27.060Z,22.10
2023-05-06T20:38:30.906Z,21.55
2023-05-06T20:41:33.874Z,20.13
2023-05-06T20:44:36.836Z,21.88
2023-05-06T20:47:39.834Z,22.73
2023-05-06T20:50:42.993Z,24.20
2023-05-06T20:53:48.915Z,21.30
2023-05-06T20:56:51.835Z,20.90
2023-05-06T20:59:56.122Z,23.48
2023-05-06T21:02:59.355Z,22.57
2023-05-06T21:06:02.411Z,19.63
2023-05-06T21:09:05.802Z,19.08
2023-05-06T21:12:08.755Z,23.92
2023-05-06T21:15:12.051Z,22.02
2023-05-06T21:18:16.865Z,21.30
2023-05-06T21:21:20.051Z,21.70
2023-05-06T21:24:23.018Z,20.48
2023-05-06T21:27:26.052Z,20.40
2023-05-06T21:30:29.432Z,23.50
2023-05-06T21:33:32.424Z,24.97
2023-05-06T21:36:38.444Z,24.00
2023-05-06T21:39:41.419Z,22.20
2023-05-06T21:42:44.420Z,22.50
2023-05-06T21:45:47.395Z,27.10
2023-05-06T21:48:50.425Z,24.57
2023-05-06T21:51:53.329Z,21.80
2023-05-06T21:54:56.440Z,22.67
2023-05-06T21:57:59.539Z,26.90
2023-05-06T22:01:02.495Z,23.70
2023-05-06T22:04:11.375Z,25.97
2023-05-06T22:07:14.589Z,24.33
2023-05-06T22:10:17.561Z,24.92
2023-05-06T22:13:20.925Z,26.35
2023-05-06T22:16:24.839Z,24.23
2023-05-06T22:19:28.120Z,24.10
2023-05-06T22:22:31.052Z,24.67
2023-05-06T22:25:34.007Z,21.67
2023-05-06T22:28:36.959Z,21.65
2023-05-06T22:31:39.912Z,23.35
2023-05-06T22:34:43.171Z,23.50
2023-05-06T22:37:46.257Z,22.97
2023-05-06T22:40:49.280Z,23.42
2023-05-06T22:43:52.291Z,23.80
2023-05-06T22:46:55.416Z,23.40
2023-05-06T22:49:58.434Z,23.73
2023-05-06T22:53:10.417Z,23.63
2023-05-06T22:56:19.048Z,24.90
2023-05-06T22:59:22.087Z,21.60
2023-05-06T23:02:25.190Z,23.33
2023-05-06T23:05:28.143Z,21.27
2023-05-06T23:08:31.153Z,24.13
2023-05-06T23:11:34.283Z,24.48
2023-05-06T23:14:37.283Z,24.13
2023-05-06T23:17:40.463Z,25.75
2023-05-06T23:20:44.427Z,27.07
2023-05-06T23:23:47.379Z,25.73
2023-05-06T23:26:50.344Z,27.83
2023-05-06T23:29:53.366Z,28.42
2023-05-06T23:32:56.509Z,27.13
2023-05-06T23:36:02.695Z,24.70
2023-05-06T23:39:05.655Z,25.57
2023-05-06T23:42:08.592Z,27.42
2023-05-06T23:45:12.090Z,27.77
2023-05-06T23:48:15.323Z,25.00
2023-05-06T23:51:18.288Z,26.33
2023-05-06T23:54:21.285Z,23.90
2023-05-06T23:57:24.306Z,26.00
